sensor_id;sensor_type;location;lat;lon;timestamp;pressure;altitude;pressure_sealevel;temperature;humidity
74834;BME280;63361;52.384;20.930;2023-03-03T00:00:43;101104.03;;;-4.36;100.00
74834;BME280;63361;52.384;20.930;2023-03-03T00:03:10;101090.84;;;-4.52;100.00
74834;BME280;63361;52.384;20.930;2023-03-03T00:05:37;101107.50;;;-4.44;100.00
74834;BME280;63361;52.384;20.930;2023-03-03T00:08:03;101105.00;;;-4.53;100.00
74834;BME280;63361;52.384;20.930;2023-03-03T00:10:29;101100.41;;;-4.59;100.00
74834;BME280;63361;52.384;20.930;2023-03-03T00:12:54;101084.94;;;-4.63;100.00
74834;BME280;63361;52.384;20.930;2023-03-03T00:15:22;101093.97;;;-4.49;100.00
74834;BME280;63361;52.384;20.930;2023-03-03T00:17:48;101079.34;;;-4.43;100.00
74834;BME280;63361;52.384;20.930;2023-03-03T00:20:31;101097.06;;;-4.05;100.00
74834;BME280;63361;52.384;20.930;2023-03-03T00:25:32;101093.91;;;-3.92;100.00
74834;BME280;63361;52.384;20.930;2023-03-03T00:28:25;101090.44;;;-3.84;100.00
74834;BME280;63361;52.384;20.930;2023-03-03T00:30:53;101087.09;;;-3.78;100.00
74834;BME280;63361;52.384;20.930;2023-03-03T00:33:34;101085.28;;;-3.70;100.00
74834;BME280;63361;52.384;20.930;2023-03-03T00:36:38;101063.56;;;-3.88;100.00
74834;BME280;63361;52.384;20.930;2023-03-03T00:39:36;101070.50;;;-3.87;100.00
74834;BME280;63361;52.384;20.930;2023-03-03T00:42:11;101068.19;;;-3.82;100.00
74834;BME280;63361;52.384;20.930;2023-03-03T00:44:45;101055.50;;;-3.95;100.00
74834;BME280;63361;52.384;20.930;2023-03-03T00:49:42;101050.94;;;-3.62;100.00
74834;BME280;63361;52.384;20.930;2023-03-03T00:52:13;101062.81;;;-3.58;100.00
74834;BME280;63361;52.384;20.930;2023-03-03T00:54:40;101047.97;;;-3.59;100.00
74834;BME280;63361;52.384;20.930;2023-03-03T00:57:05;101051.22;;;-3.48;100.00
74834;BME280;63361;52.384;20.930;2023-03-03T00:59:30;101056.22;;;-3.23;100.00
74834;BME280;63361;52.384;20.930;2023-03-03T01:01:56;101051.31;;;-3.34;100.00
74834;BME280;63361;52.384;20.930;2023-03-03T01:04:21;101048.66;;;-3.34;100.00
74834;BME280;63361;52.384;20.930;2023-03-03T01:06:46;101031.66;;;-3.31;100.00
74834;BME280;63361;52.384;20.930;2023-03-03T01:09:13;101032.88;;;-3.42;100.00
74834;BME280;63361;52.384;20.930;2023-03-03T01:11:38;101011.19;;;-3.52;100.00
74834;BME280;63361;52.384;20.930;2023-03-03T01:14:04;101014.94;;;-3.46;100.00
74834;BME280;63361;52.384;20.930;2023-03-03T01:16:29;101019.25;;;-3.53;100.00
74834;BME280;63361;52.384;20.930;2023-03-03T01:18:54;101010.28;;;-3.75;100.00
74834;BME280;63361;52.384;20.930;2023-03-03T01:21:20;100982.16;;;-3.83;100.00
74834;BME280;63361;52.384;20.930;2023-03-03T01:23:45;101004.41;;;-3.85;100.00
74834;BME280;63361;52.384;20.930;2023-03-03T01:26:10;101008.41;;;-3.98;100.00
74834;BME280;63361;52.384;20.930;2023-03-03T01:28:36;101006.66;;;-4.13;100.00
74834;BME280;63361;52.384;20.930;2023-03-03T01:31:02;101014.34;;;-4.04;100.00
74834;BME280;63361;52.384;20.930;2023-03-03T01:33:29;100996.78;;;-4.28;100.00
74834;BME280;63361;52.384;20.930;2023-03-03T01:35:56;101004.06;;;-4.38;100.00
74834;BME280;63361;52.384;20.930;2023-03-03T01:38:21;100981.38;;;-4.55;100.00
74834;BME280;63361;52.384;20.930;2023-03-03T01:40:57;101000.63;;;-4.54;100.00
74834;BME280;63361;52.384;20.930;2023-03-03T01:43:26;101011.47;;;-4.33;100.00
74834;BME280;63361;52.384;20.930;2023-03-03T01:48:27;101002.97;;;-4.68;100.00
74834;BME280;63361;52.384;20.930;2023-03-03T01:50:57;100993.56;;;-4.70;100.00
74834;BME280;63361;52.384;20.930;2023-03-03T01:53:34;100992.25;;;-4.66;100.00
74834;BME280;63361;52.384;20.930;2023-03-03T01:56:02;100980.56;;;-4.72;100.00
74834;BME280;63361;52.384;20.930;2023-03-03T01:58:34;100998.53;;;-4.59;100.00
74834;BME280;63361;52.384;20.930;2023-03-03T02:01:07;100992.75;;;-4.63;100.00
74834;BME280;63361;52.384;20.930;2023-03-03T02:03:35;100975.97;;;-4.78;100.00
74834;BME280;63361;52.384;20.930;2023-03-03T02:06:07;100991.44;;;-4.58;100.00
74834;BME280;63361;52.384;20.930;2023-03-03T02:08:40;100979.75;;;-4.72;100.00
74834;BME280;63361;52.384;20.930;2023-03-03T02:11:07;100979.94;;;-4.74;100.00
74834;BME280;63361;52.384;20.930;2023-03-03T02:13:32;100982.91;;;-4.77;100.00
74834;BME280;63361;52.384;20.930;2023-03-03T02:15:58;100975.31;;;-4.80;100.00
74834;BME280;63361;52.384;20.930;2023-03-03T02:18:24;100975.47;;;-4.73;100.00
74834;BME280;63361;52.384;20.930;2023-03-03T02:28:23;100981.91;;;-4.92;100.00
74834;BME280;63361;52.384;20.930;2023-03-03T02:30:54;100987.50;;;-4.95;100.00
74834;BME280;63361;52.384;20.930;2023-03-03T02:33:20;100994.75;;;-4.89;100.00
74834;BME280;63361;52.384;20.930;2023-03-03T02:35:45;100976.97;;;-4.95;100.00
74834;BME280;63361;52.384;20.930;2023-03-03T02:38:27;100982.75;;;-4.91;100.00
74834;BME280;63361;52.384;20.930;2023-03-03T02:46:05;100958.22;;;-5.08;100.00
74834;BME280;63361;52.384;20.930;2023-03-03T02:48:31;100975.16;;;-5.03;100.00
74834;BME280;63361;52.384;20.930;2023-03-03T02:50:56;100968.44;;;-5.05;100.00
74834;BME280;63361;52.384;20.930;2023-03-03T02:53:21;100954.13;;;-5.11;100.00
74834;BME280;63361;52.384;20.930;2023-03-03T02:55:47;100968.25;;;-4.96;100.00
74834;BME280;63361;52.384;20.930;2023-03-03T02:58:12;100962.81;;;-5.18;100.00
74834;BME280;63361;52.384;20.930;2023-03-03T03:00:37;100972.69;;;-5.20;100.00
74834;BME280;63361;52.384;20.930;2023-03-03T03:03:03;100962.97;;;-5.28;100.00
74834;BME280;63361;52.384;20.930;2023-03-03T03:05:28;100966.44;;;-5.36;100.00
74834;BME280;63361;52.384;20.930;2023-03-03T03:07:53;100958.88;;;-5.22;100.00
74834;BME280;63361;52.384;20.930;2023-03-03T03:10:19;100957.38;;;-5.17;100.00
74834;BME280;63361;52.384;20.930;2023-03-03T03:12:44;100964.16;;;-5.06;100.00
74834;BME280;63361;52.384;20.930;2023-03-03T03:15:09;100976.97;;;-4.95;100.00
74834;BME280;63361;52.384;20.930;2023-03-03T03:17:38;100964.47;;;-4.77;100.00
74834;BME280;63361;52.384;20.930;2023-03-03T03:20:04;100963.31;;;-4.74;100.00
74834;BME280;63361;52.384;20.930;2023-03-03T03:22:29;100962.13;;;-4.72;100.00
74834;BME280;63361;52.384;20.930;2023-03-03T03:24:54;100949.78;;;-4.63;100.00
74834;BME280;63361;52.384;20.930;2023-03-03T03:27:20;100931.38;;;-4.63;100.00
74834;BME280;63361;52.384;20.930;2023-03-03T03:29:47;100948.66;;;-4.61;100.00
74834;BME280;63361;52.384;20.930;2023-03-03T03:32:13;100965.41;;;-4.45;100.00
74834;BME280;63361;52.384;20.930;2023-03-03T03:34:38;100954.72;;;-4.60;100.00
74834;BME280;63361;52.384;20.930;2023-03-03T03:37:03;100952.56;;;-4.56;100.00
74834;BME280;63361;52.384;20.930;2023-03-03T03:39:28;100939.56;;;-4.58;100.00
74834;BME280;63361;52.384;20.930;2023-03-03T03:41:54;100944.19;;;-4.60;100.00
74834;BME280;63361;52.384;20.930;2023-03-03T03:44:19;100947.50;;;-4.66;100.00
74834;BME280;63361;52.384;20.930;2023-03-03T03:46:44;100941.09;;;-4.80;100.00
74834;BME280;63361;52.384;20.930;2023-03-03T03:49:10;100917.22;;;-4.86;100.00
74834;BME280;63361;52.384;20.930;2023-03-03T03:51:35;100944.06;;;-4.75;100.00
74834;BME280;63361;52.384;20.930;2023-03-03T03:54:05;100937.13;;;-4.59;100.00
74834;BME280;63361;52.384;20.930;2023-03-03T03:56:30;100944.16;;;-4.52;100.00
74834;BME280;63361;52.384;20.930;2023-03-03T03:58:55;100942.69;;;-4.54;100.00
74834;BME280;63361;52.384;20.930;2023-03-03T04:01:21;100948.91;;;-4.39;100.00
74834;BME280;63361;52.384;20.930;2023-03-03T04:03:46;100959.44;;;-4.39;100.00
74834;BME280;63361;52.384;20.930;2023-03-03T04:06:13;100945.47;;;-4.48;100.00
74834;BME280;63361;52.384;20.930;2023-03-03T04:08:38;100934.44;;;-4.51;100.00
74834;BME280;63361;52.384;20.930;2023-03-03T04:11:03;100926.06;;;-4.47;100.00
74834;BME280;63361;52.384;20.930;2023-03-03T04:13:29;100934.03;;;-4.24;100.00
74834;BME280;63361;52.384;20.930;2023-03-03T04:15:56;100939.84;;;-4.29;100.00
74834;BME280;63361;52.384;20.930;2023-03-03T04:18:21;100927.28;;;-4.27;100.00
74834;BME280;63361;52.384;20.930;2023-03-03T04:20:46;100925.84;;;-4.29;100.00
74834;BME280;63361;52.384;20.930;2023-03-03T04:23:12;100934.56;;;-4.29;100.00
74834;BME280;63361;52.384;20.930;2023-03-03T04:25:39;100922.38;;;-4.30;100.00
74834;BME280;63361;52.384;20.930;2023-03-03T04:28:04;100917.28;;;-4.31;100.00
74834;BME280;63361;52.384;20.930;2023-03-03T04:30:30;100917.94;;;-4.29;100.00
74834;BME280;63361;52.384;20.930;2023-03-03T04:32:55;100914.66;;;-4.31;100.00
74834;BME280;63361;52.384;20.930;2023-03-03T04:35:20;100921.66;;;-4.15;100.00
74834;BME280;63361;52.384;20.930;2023-03-03T04:37:46;100918.66;;;-4.12;100.00
74834;BME280;63361;52.384;20.930;2023-03-03T04:40:11;100921.78;;;-4.09;100.00
74834;BME280;63361;52.384;20.930;2023-03-03T04:42:37;100924.25;;;-4.07;100.00
74834;BME280;63361;52.384;20.930;2023-03-03T04:45:03;100916.16;;;-3.98;100.00
74834;BME280;63361;52.384;20.930;2023-03-03T04:47:29;100899.03;;;-4.10;100.00
74834;BME280;63361;52.384;20.930;2023-03-03T04:49:54;100896.56;;;-4.03;100.00
74834;BME280;63361;52.384;20.930;2023-03-03T04:52:20;100890.97;;;-4.08;100.00
74834;BME280;63361;52.384;20.930;2023-03-03T04:54:45;100884.06;;;-4.09;100.00
74834;BME280;63361;52.384;20.930;2023-03-03T04:57:10;100895.25;;;-4.07;100.00
74834;BME280;63361;52.384;20.930;2023-03-03T04:59:35;100894.75;;;-4.03;100.00
74834;BME280;63361;52.384;20.930;2023-03-03T05:02:01;100902.75;;;-3.96;100.00
74834;BME280;63361;52.384;20.930;2023-03-03T05:04:28;100893.50;;;-3.84;100.00
74834;BME280;63361;52.384;20.930;2023-03-03T05:06:54;100886.25;;;-3.90;100.00
74834;BME280;63361;52.384;20.930;2023-03-03T05:09:21;100894.66;;;-3.86;100.00
74834;BME280;63361;52.384;20.930;2023-03-03T05:11:46;100898.53;;;-3.74;100.00
74834;BME280;63361;52.384;20.930;2023-03-03T05:14:12;100891.91;;;-3.70;100.00
74834;BME280;63361;52.384;20.930;2023-03-03T05:16:37;100896.59;;;-3.58;100.00
74834;BME280;63361;52.384;20.930;2023-03-03T05:19:03;100878.38;;;-3.67;100.00
74834;BME280;63361;52.384;20.930;2023-03-03T05:21:28;100884.63;;;-3.45;100.00
74834;BME280;63361;52.384;20.930;2023-03-03T05:23:53;100878.03;;;-3.41;100.00
74834;BME280;63361;52.384;20.930;2023-03-03T05:26:19;100893.44;;;-3.30;100.00
74834;BME280;63361;52.384;20.930;2023-03-03T05:28:44;100880.88;;;-3.28;100.00
74834;BME280;63361;52.384;20.930;2023-03-03T05:31:09;100889.47;;;-3.11;100.00
74834;BME280;63361;52.384;20.930;2023-03-03T05:33:35;100891.78;;;-3.08;100.00
74834;BME280;63361;52.384;20.930;2023-03-03T05:36:01;100897.91;;;-2.93;100.00
74834;BME280;63361;52.384;20.930;2023-03-03T05:38:26;100899.63;;;-2.71;100.00
74834;BME280;63361;52.384;20.930;2023-03-03T05:40:51;100901.75;;;-2.52;100.00
74834;BME280;63361;52.384;20.930;2023-03-03T05:43:18;100889.81;;;-2.47;100.00
74834;BME280;63361;52.384;20.930;2023-03-03T05:45:44;100884.06;;;-2.36;100.00
74834;BME280;63361;52.384;20.930;2023-03-03T05:48:09;100877.41;;;-2.32;100.00
74834;BME280;63361;52.384;20.930;2023-03-03T05:50:36;100887.50;;;-2.21;100.00
74834;BME280;63361;52.384;20.930;2023-03-03T05:53:02;100873.69;;;-2.38;100.00
74834;BME280;63361;52.384;20.930;2023-03-03T05:55:27;100877.66;;;-2.27;100.00
74834;BME280;63361;52.384;20.930;2023-03-03T05:57:53;100855.16;;;-2.38;100.00
74834;BME280;63361;52.384;20.930;2023-03-03T06:00:19;100872.31;;;-2.34;100.00
74834;BME280;63361;52.384;20.930;2023-03-03T06:02:44;100866.28;;;-2.28;100.00
74834;BME280;63361;52.384;20.930;2023-03-03T06:05:10;100873.00;;;-2.25;100.00
74834;BME280;63361;52.384;20.930;2023-03-03T06:07:36;100881.09;;;-2.12;100.00
74834;BME280;63361;52.384;20.930;2023-03-03T06:10:02;100871.88;;;-2.01;100.00
74834;BME280;63361;52.384;20.930;2023-03-03T06:12:28;100885.91;;;-1.86;100.00
74834;BME280;63361;52.384;20.930;2023-03-03T06:14:53;100841.63;;;-1.99;100.00
74834;BME280;63361;52.384;20.930;2023-03-03T06:17:18;100879.19;;;-1.82;100.00
74834;BME280;63361;52.384;20.930;2023-03-03T06:19:43;100841.63;;;-2.14;100.00
74834;BME280;63361;52.384;20.930;2023-03-03T06:22:09;100862.28;;;-1.88;100.00
74834;BME280;63361;52.384;20.930;2023-03-03T06:24:34;100882.25;;;-1.85;100.00
74834;BME280;63361;52.384;20.930;2023-03-03T06:27:00;100854.94;;;-2.07;100.00
74834;BME280;63361;52.384;20.930;2023-03-03T06:29:26;100875.91;;;-2.05;100.00
74834;BME280;63361;52.384;20.930;2023-03-03T06:31:52;100868.97;;;-2.06;100.00
74834;BME280;63361;52.384;20.930;2023-03-03T06:34:18;100868.88;;;-2.13;100.00
74834;BME280;63361;52.384;20.930;2023-03-03T06:36:44;100883.72;;;-1.97;100.00
74834;BME280;63361;52.384;20.930;2023-03-03T06:39:09;100857.97;;;-2.25;100.00
74834;BME280;63361;52.384;20.930;2023-03-03T06:41:35;100889.84;;;-2.12;100.00
74834;BME280;63361;52.384;20.930;2023-03-03T06:44:00;100866.16;;;-2.05;100.00
74834;BME280;63361;52.384;20.930;2023-03-03T06:46:26;100882.97;;;-1.91;100.00
74834;BME280;63361;52.384;20.930;2023-03-03T06:48:52;100882.06;;;-1.98;100.00
74834;BME280;63361;52.384;20.930;2023-03-03T06:51:22;100894.66;;;-1.86;100.00
74834;BME280;63361;52.384;20.930;2023-03-03T06:53:54;100888.88;;;-1.74;100.00
74834;BME280;63361;52.384;20.930;2023-03-03T06:56:20;100879.78;;;-1.65;100.00
74834;BME280;63361;52.384;20.930;2023-03-03T06:58:45;100888.44;;;-1.57;100.00
74834;BME280;63361;52.384;20.930;2023-03-03T07:01:16;100887.50;;;-1.70;100.00
74834;BME280;63361;52.384;20.930;2023-03-03T07:03:42;100897.94;;;-1.62;100.00
74834;BME280;63361;52.384;20.930;2023-03-03T07:06:33;100897.13;;;-1.63;100.00
74834;BME280;63361;52.384;20.930;2023-03-03T07:08:59;100888.19;;;-1.62;100.00
74834;BME280;63361;52.384;20.930;2023-03-03T07:11:24;100865.28;;;-1.91;100.00
74834;BME280;63361;52.384;20.930;2023-03-03T07:13:54;100877.56;;;-1.83;100.00
74834;BME280;63361;52.384;20.930;2023-03-03T07:16:24;100858.00;;;-1.89;100.00
74834;BME280;63361;52.384;20.930;2023-03-03T07:18:53;100859.81;;;-1.68;100.00
74834;BME280;63361;52.384;20.930;2023-03-03T07:21:22;100885.97;;;-1.58;100.00
74834;BME280;63361;52.384;20.930;2023-03-03T07:23:52;100889.25;;;-1.56;100.00
74834;BME280;63361;52.384;20.930;2023-03-03T07:26:24;100868.00;;;-1.63;100.00
74834;BME280;63361;52.384;20.930;2023-03-03T07:28:55;100880.44;;;-1.42;100.00
74834;BME280;63361;52.384;20.930;2023-03-03T07:31:29;100890.69;;;-1.32;100.00
74834;BME280;63361;52.384;20.930;2023-03-03T07:33:57;100890.13;;;-1.28;100.00
74834;BME280;63361;52.384;20.930;2023-03-03T07:36:35;100903.41;;;-1.00;100.00
74834;BME280;63361;52.384;20.930;2023-03-03T07:39:34;100891.50;;;-0.83;100.00
74834;BME280;63361;52.384;20.930;2023-03-03T07:42:30;100899.84;;;-0.86;100.00
74834;BME280;63361;52.384;20.930;2023-03-03T07:45:00;100900.41;;;-0.90;100.00
74834;BME280;63361;52.384;20.930;2023-03-03T07:47:31;100889.88;;;-0.84;100.00
74834;BME280;63361;52.384;20.930;2023-03-03T07:50:09;100890.97;;;-0.99;100.00
74834;BME280;63361;52.384;20.930;2023-03-03T07:52:58;100877.63;;;-1.13;100.00
74834;BME280;63361;52.384;20.930;2023-03-03T07:57:53;100893.91;;;-0.88;100.00
74834;BME280;63361;52.384;20.930;2023-03-03T08:02:57;100916.72;;;-0.65;100.00
74834;BME280;63361;52.384;20.930;2023-03-03T08:06:03;100922.84;;;-0.58;100.00
74834;BME280;63361;52.384;20.930;2023-03-03T08:08:26;100928.34;;;-0.60;100.00
74834;BME280;63361;52.384;20.930;2023-03-03T08:10:56;100920.25;;;-0.52;100.00
74834;BME280;63361;52.384;20.930;2023-03-03T08:18:40;100950.38;;;-0.31;100.00
74834;BME280;63361;52.384;20.930;2023-03-03T08:21:13;100950.94;;;-0.36;100.00
74834;BME280;63361;52.384;20.930;2023-03-03T08:23:39;100951.78;;;-0.36;100.00
74834;BME280;63361;52.384;20.930;2023-03-03T08:26:05;100964.47;;;-0.31;100.00
74834;BME280;63361;52.384;20.930;2023-03-03T08:28:31;100970.59;;;-0.24;100.00
74834;BME280;63361;52.384;20.930;2023-03-03T08:30:56;100969.31;;;-0.34;100.00
74834;BME280;63361;52.384;20.930;2023-03-03T08:33:22;100959.56;;;-0.27;100.00
74834;BME280;63361;52.384;20.930;2023-03-03T08:35:47;100949.75;;;-0.33;100.00
74834;BME280;63361;52.384;20.930;2023-03-03T08:38:14;100952.59;;;-0.35;100.00
74834;BME280;63361;52.384;20.930;2023-03-03T08:40:39;100929.97;;;-0.31;100.00
74834;BME280;63361;52.384;20.930;2023-03-03T08:43:05;100954.56;;;-0.44;100.00
74834;BME280;63361;52.384;20.930;2023-03-03T08:45:31;100954.31;;;-0.14;100.00
74834;BME280;63361;52.384;20.930;2023-03-03T08:47:57;100952.28;;;-0.12;100.00
74834;BME280;63361;52.384;20.930;2023-03-03T08:50:24;100940.47;;;-0.10;100.00
74834;BME280;63361;52.384;20.930;2023-03-03T08:52:50;100951.44;;;0.15;100.00
74834;BME280;63361;52.384;20.930;2023-03-03T08:55:15;100955.44;;;0.05;100.00
74834;BME280;63361;52.384;20.930;2023-03-03T08:57:40;100953.19;;;0.02;100.00
74834;BME280;63361;52.384;20.930;2023-03-03T09:00:08;100948.16;;;0.20;100.00
74834;BME280;63361;52.384;20.930;2023-03-03T09:02:34;100948.28;;;0.53;100.00
74834;BME280;63361;52.384;20.930;2023-03-03T09:05:00;100958.09;;;0.59;100.00
74834;BME280;63361;52.384;20.930;2023-03-03T09:07:25;100964.81;;;0.55;100.00
74834;BME280;63361;52.384;20.930;2023-03-03T09:09:50;100964.78;;;0.42;100.00
74834;BME280;63361;52.384;20.930;2023-03-03T09:12:27;100955.78;;;0.36;100.00
74834;BME280;63361;52.384;20.930;2023-03-03T09:14:55;100953.13;;;0.29;100.00
74834;BME280;63361;52.384;20.930;2023-03-03T09:17:31;100939.66;;;0.38;100.00
74834;BME280;63361;52.384;20.930;2023-03-03T09:20:54;100933.03;;;0.14;100.00
74834;BME280;63361;52.384;20.930;2023-03-03T09:22:55;100929.16;;;0.10;100.00
74834;BME280;63361;52.384;20.930;2023-03-03T09:25:30;100917.47;;;-0.03;100.00
74834;BME280;63361;52.384;20.930;2023-03-03T09:27:56;100921.97;;;0.04;100.00
74834;BME280;63361;52.384;20.930;2023-03-03T09:32:50;100890.66;;;-0.21;100.00
74834;BME280;63361;52.384;20.930;2023-03-03T09:35:36;100900.06;;;-0.12;100.00
74834;BME280;63361;52.384;20.930;2023-03-03T09:38:31;100912.31;;;0.44;100.00
74834;BME280;63361;52.384;20.930;2023-03-03T09:47:21;100925.94;;;0.27;100.00
74834;BME280;63361;52.384;20.930;2023-03-03T09:50:25;100908.25;;;-0.07;100.00
74834;BME280;63361;52.384;20.930;2023-03-03T09:56:09;100907.91;;;0.10;100.00
74834;BME280;63361;52.384;20.930;2023-03-03T10:01:33;100922.00;;;0.10;100.00
74834;BME280;63361;52.384;20.930;2023-03-03T10:10:55;100925.56;;;-0.11;100.00
74834;BME280;63361;52.384;20.930;2023-03-03T10:13:30;100927.97;;;-0.22;100.00
74834;BME280;63361;52.384;20.930;2023-03-03T10:18:49;100927.13;;;0.12;100.00
74834;BME280;63361;52.384;20.930;2023-03-03T10:21:38;100934.06;;;0.19;100.00
74834;BME280;63361;52.384;20.930;2023-03-03T10:43:49;100937.09;;;0.10;100.00
74834;BME280;63361;52.384;20.930;2023-03-03T10:55:04;100926.50;;;0.10;100.00
74834;BME280;63361;52.384;20.930;2023-03-03T11:00:46;100933.25;;;0.12;100.00
74834;BME280;63361;52.384;20.930;2023-03-03T11:03:37;100942.56;;;0.02;100.00
74834;BME280;63361;52.384;20.930;2023-03-03T11:09:10;100936.28;;;0.09;100.00
74834;BME280;63361;52.384;20.930;2023-03-03T11:32:26;100905.91;;;0.31;100.00
74834;BME280;63361;52.384;20.930;2023-03-03T11:40:25;100905.78;;;0.53;100.00
74834;BME280;63361;52.384;20.930;2023-03-03T11:43:20;100911.72;;;0.55;100.00
74834;BME280;63361;52.384;20.930;2023-03-03T11:45:53;100908.84;;;0.56;100.00
74834;BME280;63361;52.384;20.930;2023-03-03T11:51:01;100913.38;;;0.02;100.00
74834;BME280;63361;52.384;20.930;2023-03-03T11:56:39;100894.16;;;-0.07;100.00
74834;BME280;63361;52.384;20.930;2023-03-03T11:59:27;100917.09;;;0.07;100.00
74834;BME280;63361;52.384;20.930;2023-03-03T12:02:22;100917.84;;;-0.06;100.00
74834;BME280;63361;52.384;20.930;2023-03-03T12:04:58;100915.78;;;-0.17;100.00
74834;BME280;63361;52.384;20.930;2023-03-03T12:08:02;100903.91;;;-0.14;100.00
74834;BME280;63361;52.384;20.930;2023-03-03T12:13:05;100911.50;;;-0.11;100.00
74834;BME280;63361;52.384;20.930;2023-03-03T12:27:34;100912.94;;;-0.09;100.00
74834;BME280;63361;52.384;20.930;2023-03-03T12:29:50;100917.03;;;0.00;100.00
74834;BME280;63361;52.384;20.930;2023-03-03T12:38:01;100893.22;;;0.14;100.00
74834;BME280;63361;52.384;20.930;2023-03-03T12:40:32;100913.84;;;0.18;100.00
74834;BME280;63361;52.384;20.930;2023-03-03T12:48:42;100900.53;;;0.05;100.00
74834;BME280;63361;52.384;20.930;2023-03-03T12:51:33;100901.81;;;0.22;100.00
74834;BME280;63361;52.384;20.930;2023-03-03T12:59:26;100891.63;;;0.26;100.00
74834;BME280;63361;52.384;20.930;2023-03-03T13:12:44;100897.72;;;0.20;100.00
74834;BME280;63361;52.384;20.930;2023-03-03T13:15:29;100892.03;;;0.23;100.00
74834;BME280;63361;52.384;20.930;2023-03-03T13:20:32;100900.22;;;0.28;100.00
74834;BME280;63361;52.384;20.930;2023-03-03T13:23:24;100884.66;;;0.12;100.00
74834;BME280;63361;52.384;20.930;2023-03-03T13:26:06;100892.00;;;0.10;100.00
74834;BME280;63361;52.384;20.930;2023-03-03T13:31:19;100885.00;;;0.02;100.00
74834;BME280;63361;52.384;20.930;2023-03-03T13:33:52;100886.25;;;-0.01;100.00
74834;BME280;63361;52.384;20.930;2023-03-03T13:36:22;100879.50;;;-0.03;100.00
74834;BME280;63361;52.384;20.930;2023-03-03T13:38:52;100870.25;;;-0.14;100.00
74834;BME280;63361;52.384;20.930;2023-03-03T13:41:59;100881.75;;;0.00;100.00
74834;BME280;63361;52.384;20.930;2023-03-03T13:44:45;100884.41;;;0.00;100.00
74834;BME280;63361;52.384;20.930;2023-03-03T13:50:15;100870.75;;;0.10;100.00
74834;BME280;63361;52.384;20.930;2023-03-03T13:53:11;100872.75;;;-0.06;100.00
74834;BME280;63361;52.384;20.930;2023-03-03T14:01:19;100866.44;;;0.02;100.00
74834;BME280;63361;52.384;20.930;2023-03-03T14:03:54;100875.22;;;-0.04;100.00
74834;BME280;63361;52.384;20.930;2023-03-03T14:06:27;100865.13;;;-0.22;100.00
74834;BME280;63361;52.384;20.930;2023-03-03T14:09:21;100861.03;;;-0.31;100.00
74834;BME280;63361;52.384;20.930;2023-03-03T14:12:06;100872.50;;;-0.11;100.00
74834;BME280;63361;52.384;20.930;2023-03-03T14:14:50;100867.25;;;0.03;100.00
74834;BME280;63361;52.384;20.930;2023-03-03T14:17:31;100863.34;;;-0.08;100.00
74834;BME280;63361;52.384;20.930;2023-03-03T14:25:15;100866.19;;;-0.10;100.00
74834;BME280;63361;52.384;20.930;2023-03-03T14:27:53;100868.69;;;-0.02;100.00
74834;BME280;63361;52.384;20.930;2023-03-03T14:30:28;100853.59;;;-0.01;100.00
74834;BME280;63361;52.384;20.930;2023-03-03T14:38:13;100868.69;;;0.05;100.00
74834;BME280;63361;52.384;20.930;2023-03-03T14:40:41;100856.44;;;0.04;100.00
74834;BME280;63361;52.384;20.930;2023-03-03T14:43:45;100863.22;;;0.13;100.00
74834;BME280;63361;52.384;20.930;2023-03-03T14:48:57;100839.66;;;-0.10;100.00
74834;BME280;63361;52.384;20.930;2023-03-03T14:51:25;100860.09;;;-0.04;100.00
74834;BME280;63361;52.384;20.930;2023-03-03T14:53:55;100853.75;;;-0.09;100.00
74834;BME280;63361;52.384;20.930;2023-03-03T14:56:32;100849.22;;;-0.15;100.00
74834;BME280;63361;52.384;20.930;2023-03-03T14:59:19;100862.09;;;-0.12;100.00
74834;BME280;63361;52.384;20.930;2023-03-03T15:01:45;100853.66;;;-0.29;100.00
74834;BME280;63361;52.384;20.930;2023-03-03T15:06:51;100846.47;;;-0.48;100.00
74834;BME280;63361;52.384;20.930;2023-03-03T15:11:54;100839.34;;;-0.41;100.00
74834;BME280;63361;52.384;20.930;2023-03-03T15:16:57;100856.25;;;-0.42;100.00
74834;BME280;63361;52.384;20.930;2023-03-03T15:19:37;100865.03;;;-0.42;100.00
74834;BME280;63361;52.384;20.930;2023-03-03T15:22:17;100853.41;;;-0.47;100.00
74834;BME280;63361;52.384;20.930;2023-03-03T15:25:03;100842.31;;;-0.57;100.00
74834;BME280;63361;52.384;20.930;2023-03-03T15:27:48;100859.53;;;-0.47;100.00
74834;BME280;63361;52.384;20.930;2023-03-03T15:30:45;100860.78;;;-0.36;100.00
74834;BME280;63361;52.384;20.930;2023-03-03T15:35:51;100847.34;;;-0.34;100.00
74834;BME280;63361;52.384;20.930;2023-03-03T15:44:14;100848.31;;;-0.42;100.00
74834;BME280;63361;52.384;20.930;2023-03-03T15:47:12;100841.34;;;-0.50;100.00
74834;BME280;63361;52.384;20.930;2023-03-03T15:58:32;100844.56;;;-0.54;100.00
74834;BME280;63361;52.384;20.930;2023-03-03T16:03:17;100840.66;;;-0.65;100.00
74834;BME280;63361;52.384;20.930;2023-03-03T16:08:16;100832.09;;;-0.60;100.00
74834;BME280;63361;52.384;20.930;2023-03-03T16:13:22;100848.91;;;-0.47;100.00
74834;BME280;63361;52.384;20.930;2023-03-03T16:16:01;100847.47;;;-0.49;100.00
74834;BME280;63361;52.384;20.930;2023-03-03T16:18:57;100843.19;;;-0.50;100.00
74834;BME280;63361;52.384;20.930;2023-03-03T16:24:22;100823.94;;;-0.59;100.00
74834;BME280;63361;52.384;20.930;2023-03-03T16:27:05;100835.81;;;-0.55;100.00
74834;BME280;63361;52.384;20.930;2023-03-03T16:32:43;100831.13;;;-0.53;100.00
74834;BME280;63361;52.384;20.930;2023-03-03T16:35:26;100824.75;;;-0.65;100.00
74834;BME280;63361;52.384;20.930;2023-03-03T16:40:26;100827.16;;;-0.70;100.00